sensor_id;sensor_type;location;lat;lon;timestamp;temperature;humidity
5130;DHT22;2583;50.946;6.954;2023-05-10T00:01:43;13.80;99.90
5130;DHT22;2583;50.946;6.954;2023-05-10T00:04:10;13.90;99.90
5130;DHT22;2583;50.946;6.954;2023-05-10T00:06:36;13.90;99.90
5130;DHT22;2583;50.946;6.954;2023-05-10T00:09:03;13.90;99.90
5130;DHT22;2583;50.946;6.954;2023-05-10T00:11:30;13.90;99.90
5130;DHT22;2583;50.946;6.954;2023-05-10T00:13:57;13.90;99.90
5130;DHT22;2583;50.946;6.954;2023-05-10T00:16:24;13.90;99.90
5130;DHT22;2583;50.946;6.954;2023-05-10T00:18:51;13.90;99.90
5130;DHT22;2583;50.946;6.954;2023-05-10T00:21:17;13.90;99.90
5130;DHT22;2583;50.946;6.954;2023-05-10T00:23:44;13.90;99.90
5130;DHT22;2583;50.946;6.954;2023-05-10T00:26:11;13.90;99.90
5130;DHT22;2583;50.946;6.954;2023-05-10T00:28:38;13.90;99.90
5130;DHT22;2583;50.946;6.954;2023-05-10T00:31:05;13.90;99.90
5130;DHT22;2583;50.946;6.954;2023-05-10T00:33:32;13.90;99.90
5130;DHT22;2583;50.946;6.954;2023-05-10T00:35:58;13.90;99.90
5130;DHT22;2583;50.946;6.954;2023-05-10T00:38:25;13.90;99.90
5130;DHT22;2583;50.946;6.954;2023-05-10T00:40:52;13.90;99.90
5130;DHT22;2583;50.946;6.954;2023-05-10T00:43:18;13.90;99.90
5130;DHT22;2583;50.946;6.954;2023-05-10T00:45:45;13.90;99.90
5130;DHT22;2583;50.946;6.954;2023-05-10T00:48:12;13.90;99.90
5130;DHT22;2583;50.946;6.954;2023-05-10T00:50:39;13.90;99.90
5130;DHT22;2583;50.946;6.954;2023-05-10T00:53:07;13.90;99.90
5130;DHT22;2583;50.946;6.954;2023-05-10T00:55:34;13.90;99.90
5130;DHT22;2583;50.946;6.954;2023-05-10T00:58:01;13.90;99.90
5130;DHT22;2583;50.946;6.954;2023-05-10T01:00:28;13.90;99.90
5130;DHT22;2583;50.946;6.954;2023-05-10T01:02:56;13.90;99.90
5130;DHT22;2583;50.946;6.954;2023-05-10T01:05:23;13.90;99.90
5130;DHT22;2583;50.946;6.954;2023-05-10T01:07:50;13.90;99.90
5130;DHT22;2583;50.946;6.954;2023-05-10T01:10:17;13.90;99.90
5130;DHT22;2583;50.946;6.954;2023-05-10T01:12:46;13.90;99.90
5130;DHT22;2583;50.946;6.954;2023-05-10T01:15:14;13.90;99.90
5130;DHT22;2583;50.946;6.954;2023-05-10T01:17:44;13.90;99.90
5130;DHT22;2583;50.946;6.954;2023-05-10T01:20:12;13.90;99.90
5130;DHT22;2583;50.946;6.954;2023-05-10T01:33:55;14.00;99.90
5130;DHT22;2583;50.946;6.954;2023-05-10T01:36:45;14.00;99.90
5130;DHT22;2583;50.946;6.954;2023-05-10T01:39:15;14.00;99.90
5130;DHT22;2583;50.946;6.954;2023-05-10T01:41:59;14.00;99.90
5130;DHT22;2583;50.946;6.954;2023-05-10T01:47:20;14.00;99.90
5130;DHT22;2583;50.946;6.954;2023-05-10T01:49:53;14.00;99.90
5130;DHT22;2583;50.946;6.954;2023-05-10T01:52:26;14.00;99.90
5130;DHT22;2583;50.946;6.954;2023-05-10T01:55:00;14.00;99.90
5130;DHT22;2583;50.946;6.954;2023-05-10T01:57:32;14.00;99.90
5130;DHT22;2583;50.946;6.954;2023-05-10T02:00:04;14.00;99.90
5130;DHT22;2583;50.946;6.954;2023-05-10T02:02:35;14.00;99.90
5130;DHT22;2583;50.946;6.954;2023-05-10T02:05:05;14.00;99.90
5130;DHT22;2583;50.946;6.954;2023-05-10T02:07:35;14.00;99.90
5130;DHT22;2583;50.946;6.954;2023-05-10T02:10:04;14.00;99.90
5130;DHT22;2583;50.946;6.954;2023-05-10T02:12:36;14.00;99.90
5130;DHT22;2583;50.946;6.954;2023-05-10T02:15:05;14.00;99.90
5130;DHT22;2583;50.946;6.954;2023-05-10T02:17:35;14.00;99.90
5130;DHT22;2583;50.946;6.954;2023-05-10T02:20:05;14.00;99.90
5130;DHT22;2583;50.946;6.954;2023-05-10T02:22:33;14.00;99.90
5130;DHT22;2583;50.946;6.954;2023-05-10T02:25:01;14.00;99.90
5130;DHT22;2583;50.946;6.954;2023-05-10T02:27:29;14.00;99.90
5130;DHT22;2583;50.946;6.954;2023-05-10T02:29:57;13.90;99.90
5130;DHT22;2583;50.946;6.954;2023-05-10T02:32:26;13.80;99.90
5130;DHT22;2583;50.946;6.954;2023-05-10T02:34:54;13.70;99.90
5130;DHT22;2583;50.946;6.954;2023-05-10T02:37:22;13.70;99.90
5130;DHT22;2583;50.946;6.954;2023-05-10T02:39:51;13.60;99.90
5130;DHT22;2583;50.946;6.954;2023-05-10T02:42:25;13.60;99.90
5130;DHT22;2583;50.946;6.954;2023-05-10T02:44:55;13.50;99.90
5130;DHT22;2583;50.946;6.954;2023-05-10T02:47:23;13.50;99.90
5130;DHT22;2583;50.946;6.954;2023-05-10T02:49:50;13.50;99.90
5130;DHT22;2583;50.946;6.954;2023-05-10T02:52:23;13.50;99.90
5130;DHT22;2583;50.946;6.954;2023-05-10T02:54:55;13.50;99.90
5130;DHT22;2583;50.946;6.954;2023-05-10T02:57:27;13.60;99.90
5130;DHT22;2583;50.946;6.954;2023-05-10T02:59:55;13.50;99.90
5130;DHT22;2583;50.946;6.954;2023-05-10T03:02:22;13.50;99.90
5130;DHT22;2583;50.946;6.954;2023-05-10T03:04:49;13.60;99.90
5130;DHT22;2583;50.946;6.954;2023-05-10T03:07:16;13.70;99.90
5130;DHT22;2583;50.946;6.954;2023-05-10T03:09:45;13.70;99.90
5130;DHT22;2583;50.946;6.954;2023-05-10T03:12:40;13.70;99.90
5130;DHT22;2583;50.946;6.954;2023-05-10T03:16:06;13.70;99.90
5130;DHT22;2583;50.946;6.954;2023-05-10T03:18:09;13.70;99.90
5130;DHT22;2583;50.946;6.954;2023-05-10T03:20:46;13.70;99.90
5130;DHT22;2583;50.946;6.954;2023-05-10T03:23:22;13.60;99.90
5130;DHT22;2583;50.946;6.954;2023-05-10T03:25:50;13.60;99.90
5130;DHT22;2583;50.946;6.954;2023-05-10T03:28:18;13.70;99.90
5130;DHT22;2583;50.946;6.954;2023-05-10T03:30:46;13.80;99.90
5130;DHT22;2583;50.946;6.954;2023-05-10T03:33:13;13.80;99.90
5130;DHT22;2583;50.946;6.954;2023-05-10T03:35:41;13.80;99.90
5130;DHT22;2583;50.946;6.954;2023-05-10T03:38:08;13.80;99.90
5130;DHT22;2583;50.946;6.954;2023-05-10T03:40:35;13.80;99.90
5130;DHT22;2583;50.946;6.954;2023-05-10T03:43:01;13.80;99.90
5130;DHT22;2583;50.946;6.954;2023-05-10T03:45:28;13.80;99.90
5130;DHT22;2583;50.946;6.954;2023-05-10T03:47:55;13.80;99.90
5130;DHT22;2583;50.946;6.954;2023-05-10T03:50:23;13.80;99.90
5130;DHT22;2583;50.946;6.954;2023-05-10T03:52:50;13.80;99.90
5130;DHT22;2583;50.946;6.954;2023-05-10T03:55:19;13.90;99.90
5130;DHT22;2583;50.946;6.954;2023-05-10T03:57:46;13.90;99.90
5130;DHT22;2583;50.946;6.954;2023-05-10T04:00:16;13.90;99.90
5130;DHT22;2583;50.946;6.954;2023-05-10T04:02:43;13.90;99.90
5130;DHT22;2583;50.946;6.954;2023-05-10T04:05:12;13.90;99.90
5130;DHT22;2583;50.946;6.954;2023-05-10T04:07:39;13.90;99.90
5130;DHT22;2583;50.946;6.954;2023-05-10T04:10:06;14.00;99.90
5130;DHT22;2583;50.946;6.954;2023-05-10T04:12:33;13.90;99.90
5130;DHT22;2583;50.946;6.954;2023-05-10T04:15:00;14.00;99.90
5130;DHT22;2583;50.946;6.954;2023-05-10T04:17:27;13.90;99.90
5130;DHT22;2583;50.946;6.954;2023-05-10T04:19:55;13.90;99.90
5130;DHT22;2583;50.946;6.954;2023-05-10T04:22:22;13.90;99.90
5130;DHT22;2583;50.946;6.954;2023-05-10T04:24:49;14.00;99.90
5130;DHT22;2583;50.946;6.954;2023-05-10T04:27:15;14.00;99.90
5130;DHT22;2583;50.946;6.954;2023-05-10T04:29:42;14.00;99.90
5130;DHT22;2583;50.946;6.954;2023-05-10T04:32:09;14.00;99.90
5130;DHT22;2583;50.946;6.954;2023-05-10T04:34:37;14.00;99.90
5130;DHT22;2583;50.946;6.954;2023-05-10T04:37:04;14.00;99.90
5130;DHT22;2583;50.946;6.954;2023-05-10T04:39:30;14.00;99.90
5130;DHT22;2583;50.946;6.954;2023-05-10T04:41:57;14.00;99.90
5130;DHT22;2583;50.946;6.954;2023-05-10T04:44:24;13.90;99.90
5130;DHT22;2583;50.946;6.954;2023-05-10T04:46:51;13.90;99.90
5130;DHT22;2583;50.946;6.954;2023-05-10T04:49:17;13.90;99.90
5130;DHT22;2583;50.946;6.954;2023-05-10T04:51:44;13.90;99.90
5130;DHT22;2583;50.946;6.954;2023-05-10T04:54:11;13.90;99.90
5130;DHT22;2583;50.946;6.954;2023-05-10T04:56:37;14.00;99.90
5130;DHT22;2583;50.946;6.954;2023-05-10T04:59:04;14.00;99.90
5130;DHT22;2583;50.946;6.954;2023-05-10T05:01:31;14.10;99.90
5130;DHT22;2583;50.946;6.954;2023-05-10T05:03:58;14.00;99.90
5130;DHT22;2583;50.946;6.954;2023-05-10T05:06:25;13.90;99.90
5130;DHT22;2583;50.946;6.954;2023-05-10T05:08:53;14.00;99.90
5130;DHT22;2583;50.946;6.954;2023-05-10T05:11:20;14.10;99.90
5130;DHT22;2583;50.946;6.954;2023-05-10T05:13:47;14.00;99.90
5130;DHT22;2583;50.946;6.954;2023-05-10T05:16:14;14.10;99.90
5130;DHT22;2583;50.946;6.954;2023-05-10T05:18:41;14.10;99.90
5130;DHT22;2583;50.946;6.954;2023-05-10T05:21:18;14.20;99.90
5130;DHT22;2583;50.946;6.954;2023-05-10T05:23:46;14.20;99.90
5130;DHT22;2583;50.946;6.954;2023-05-10T05:26:12;14.20;99.90
5130;DHT22;2583;50.946;6.954;2023-05-10T05:28:39;14.10;99.90
5130;DHT22;2583;50.946;6.954;2023-05-10T05:31:06;14.20;99.90
5130;DHT22;2583;50.946;6.954;2023-05-10T05:33:37;14.10;99.90
5130;DHT22;2583;50.946;6.954;2023-05-10T05:36:05;14.00;99.90
5130;DHT22;2583;50.946;6.954;2023-05-10T05:38:32;14.00;99.90
5130;DHT22;2583;50.946;6.954;2023-05-10T05:40:59;14.10;99.90
5130;DHT22;2583;50.946;6.954;2023-05-10T05:43:25;14.00;99.90
5130;DHT22;2583;50.946;6.954;2023-05-10T05:45:52;14.00;99.90
5130;DHT22;2583;50.946;6.954;2023-05-10T05:48:24;14.10;99.90
5130;DHT22;2583;50.946;6.954;2023-05-10T05:50:54;14.10;99.90
5130;DHT22;2583;50.946;6.954;2023-05-10T05:53:23;14.20;99.90
5130;DHT22;2583;50.946;6.954;2023-05-10T05:55:54;14.30;99.90
5130;DHT22;2583;50.946;6.954;2023-05-10T05:58:21;14.20;99.90
5130;DHT22;2583;50.946;6.954;2023-05-10T06:00:48;14.20;99.90
5130;DHT22;2583;50.946;6.954;2023-05-10T06:03:15;14.40;99.90
5130;DHT22;2583;50.946;6.954;2023-05-10T06:05:43;14.40;99.90
5130;DHT22;2583;50.946;6.954;2023-05-10T06:08:10;14.40;99.90
5130;DHT22;2583;50.946;6.954;2023-05-10T06:10:37;14.50;99.90
5130;DHT22;2583;50.946;6.954;2023-05-10T06:13:03;14.50;99.90
5130;DHT22;2583;50.946;6.954;2023-05-10T06:15:30;14.60;99.90
5130;DHT22;2583;50.946;6.954;2023-05-10T06:17:57;14.50;99.90
5130;DHT22;2583;50.946;6.954;2023-05-10T06:20:24;14.50;99.90
5130;DHT22;2583;50.946;6.954;2023-05-10T06:22:51;14.50;99.90
5130;DHT22;2583;50.946;6.954;2023-05-10T06:25:17;14.50;99.90
5130;DHT22;2583;50.946;6.954;2023-05-10T06:27:45;14.50;99.90
5130;DHT22;2583;50.946;6.954;2023-05-10T06:30:17;14.40;99.90
5130;DHT22;2583;50.946;6.954;2023-05-10T06:32:44;14.30;99.90
5130;DHT22;2583;50.946;6.954;2023-05-10T06:35:11;14.30;99.90
5130;DHT22;2583;50.946;6.954;2023-05-10T06:37:38;14.30;99.90
5130;DHT22;2583;50.946;6.954;2023-05-10T06:40:06;14.20;99.90
5130;DHT22;2583;50.946;6.954;2023-05-10T06:42:33;14.30;99.90
5130;DHT22;2583;50.946;6.954;2023-05-10T06:45:00;14.30;99.90
5130;DHT22;2583;50.946;6.954;2023-05-10T06:47:26;14.30;99.90
5130;DHT22;2583;50.946;6.954;2023-05-10T06:49:53;14.40;99.90
5130;DHT22;2583;50.946;6.954;2023-05-10T06:52:20;14.30;99.90
5130;DHT22;2583;50.946;6.954;2023-05-10T06:54:46;14.30;99.90
5130;DHT22;2583;50.946;6.954;2023-05-10T06:57:13;14.20;99.90
5130;DHT22;2583;50.946;6.954;2023-05-10T07:00:00;14.20;99.90
5130;DHT22;2583;50.946;6.954;2023-05-10T07:02:27;14.20;99.90
5130;DHT22;2583;50.946;6.954;2023-05-10T07:04:54;14.30;99.90
5130;DHT22;2583;50.946;6.954;2023-05-10T07:07:21;14.20;99.90
5130;DHT22;2583;50.946;6.954;2023-05-10T07:09:48;14.20;99.90
5130;DHT22;2583;50.946;6.954;2023-05-10T07:12:16;14.30;99.90
5130;DHT22;2583;50.946;6.954;2023-05-10T07:14:43;14.30;99.90
5130;DHT22;2583;50.946;6.954;2023-05-10T07:17:10;14.30;99.90
5130;DHT22;2583;50.946;6.954;2023-05-10T07:19:37;14.40;99.90
5130;DHT22;2583;50.946;6.954;2023-05-10T07:22:03;14.40;99.90
5130;DHT22;2583;50.946;6.954;2023-05-10T07:24:31;14.30;99.90
5130;DHT22;2583;50.946;6.954;2023-05-10T07:26:58;14.40;99.90
5130;DHT22;2583;50.946;6.954;2023-05-10T07:29:25;14.50;99.90
5130;DHT22;2583;50.946;6.954;2023-05-10T07:31:52;14.60;99.90
5130;DHT22;2583;50.946;6.954;2023-05-10T07:34:18;14.60;99.90
5130;DHT22;2583;50.946;6.954;2023-05-10T07:36:45;14.60;99.90
5130;DHT22;2583;50.946;6.954;2023-05-10T07:39:12;14.80;99.90
5130;DHT22;2583;50.946;6.954;2023-05-10T07:41:51;14.60;99.90
5130;DHT22;2583;50.946;6.954;2023-05-10T07:44:18;14.50;99.90
5130;DHT22;2583;50.946;6.954;2023-05-10T07:46:47;14.60;99.90
5130;DHT22;2583;50.946;6.954;2023-05-10T07:49:14;14.50;99.90
5130;DHT22;2583;50.946;6.954;2023-05-10T07:51:41;14.50;99.90
5130;DHT22;2583;50.946;6.954;2023-05-10T07:54:09;14.60;99.90
5130;DHT22;2583;50.946;6.954;2023-05-10T07:56:35;14.50;99.90
5130;DHT22;2583;50.946;6.954;2023-05-10T07:59:03;14.60;99.90
5130;DHT22;2583;50.946;6.954;2023-05-10T08:01:32;14.60;99.90
5130;DHT22;2583;50.946;6.954;2023-05-10T08:03:59;14.60;99.90
5130;DHT22;2583;50.946;6.954;2023-05-10T08:06:26;14.70;99.90
5130;DHT22;2583;50.946;6.954;2023-05-10T08:08:54;14.70;99.90
5130;DHT22;2583;50.946;6.954;2023-05-10T08:11:22;14.70;99.90
5130;DHT22;2583;50.946;6.954;2023-05-10T08:13:50;14.50;99.90
5130;DHT22;2583;50.946;6.954;2023-05-10T08:16:17;14.50;99.90
5130;DHT22;2583;50.946;6.954;2023-05-10T08:18:45;14.50;99.90
5130;DHT22;2583;50.946;6.954;2023-05-10T08:21:14;14.60;99.90
5130;DHT22;2583;50.946;6.954;2023-05-10T08:23:41;14.60;99.90
5130;DHT22;2583;50.946;6.954;2023-05-10T08:26:07;14.60;99.90
5130;DHT22;2583;50.946;6.954;2023-05-10T08:28:34;14.80;99.90
5130;DHT22;2583;50.946;6.954;2023-05-10T08:31:01;14.80;99.90
5130;DHT22;2583;50.946;6.954;2023-05-10T08:33:28;14.80;99.90
5130;DHT22;2583;50.946;6.954;2023-05-10T08:35:55;14.80;99.90
5130;DHT22;2583;50.946;6.954;2023-05-10T08:38:21;14.70;99.90
5130;DHT22;2583;50.946;6.954;2023-05-10T08:40:50;14.60;99.90
5130;DHT22;2583;50.946;6.954;2023-05-10T08:43:26;14.60;99.90
5130;DHT22;2583;50.946;6.954;2023-05-10T08:45:55;14.50;99.90
5130;DHT22;2583;50.946;6.954;2023-05-10T08:48:24;14.50;99.90
5130;DHT22;2583;50.946;6.954;2023-05-10T08:50:53;14.60;99.90
5130;DHT22;2583;50.946;6.954;2023-05-10T08:53:24;14.50;99.90
5130;DHT22;2583;50.946;6.954;2023-05-10T08:55:53;14.70;99.90
5130;DHT22;2583;50.946;6.954;2023-05-10T08:58:20;14.80;99.90
5130;DHT22;2583;50.946;6.954;2023-05-10T09:00:49;14.80;99.90
5130;DHT22;2583;50.946;6.954;2023-05-10T09:03:17;14.80;99.90
5130;DHT22;2583;50.946;6.954;2023-05-10T09:05:44;14.80;99.90
5130;DHT22;2583;50.946;6.954;2023-05-10T09:08:12;14.90;99.90
5130;DHT22;2583;50.946;6.954;2023-05-10T09:10:39;15.10;99.90
5130;DHT22;2583;50.946;6.954;2023-05-10T09:13:07;15.30;99.90
5130;DHT22;2583;50.946;6.954;2023-05-10T09:15:34;15.40;99.90
5130;DHT22;2583;50.946;6.954;2023-05-10T09:18:01;15.40;99.90
5130;DHT22;2583;50.946;6.954;2023-05-10T09:20:29;15.50;99.90
5130;DHT22;2583;50.946;6.954;2023-05-10T09:22:56;15.50;99.90
5130;DHT22;2583;50.946;6.954;2023-05-10T09:25:22;15.40;99.90
5130;DHT22;2583;50.946;6.954;2023-05-10T09:27:49;15.30;99.90
5130;DHT22;2583;50.946;6.954;2023-05-10T09:30:27;15.40;99.90
5130;DHT22;2583;50.946;6.954;2023-05-10T09:32:55;15.50;99.90
5130;DHT22;2583;50.946;6.954;2023-05-10T09:35:25;15.50;99.90
5130;DHT22;2583;50.946;6.954;2023-05-10T09:37:57;15.50;99.90
5130;DHT22;2583;50.946;6.954;2023-05-10T09:40:25;15.40;99.90
5130;DHT22;2583;50.946;6.954;2023-05-10T09:43:03;15.20;99.90
5130;DHT22;2583;50.946;6.954;2023-05-10T09:45:32;15.10;99.90
5130;DHT22;2583;50.946;6.954;2023-05-10T09:48:03;15.10;99.90
5130;DHT22;2583;50.946;6.954;2023-05-10T09:50:30;15.00;99.90
5130;DHT22;2583;50.946;6.954;2023-05-10T09:53:01;15.00;99.90
5130;DHT22;2583;50.946;6.954;2023-05-10T09:55:39;14.80;99.90
5130;DHT22;2583;50.946;6.954;2023-05-10T09:58:07;14.80;99.90
5130;DHT22;2583;50.946;6.954;2023-05-10T10:00:38;15.00;99.90
5130;DHT22;2583;50.946;6.954;2023-05-10T10:03:07;15.10;99.90
5130;DHT22;2583;50.946;6.954;2023-05-10T10:05:40;15.30;99.90
5130;DHT22;2583;50.946;6.954;2023-05-10T10:08:08;15.40;99.90
5130;DHT22;2583;50.946;6.954;2023-05-10T10:10:35;15.70;99.90
5130;DHT22;2583;50.946;6.954;2023-05-10T10:13:02;15.60;99.90
5130;DHT22;2583;50.946;6.954;2023-05-10T10:15:29;15.60;99.90
5130;DHT22;2583;50.946;6.954;2023-05-10T10:17:56;15.80;99.90
5130;DHT22;2583;50.946;6.954;2023-05-10T10:20:23;15.90;99.90
5130;DHT22;2583;50.946;6.954;2023-05-10T10:22:50;16.10;99.90
5130;DHT22;2583;50.946;6.954;2023-05-10T10:25:19;16.30;99.90
5130;DHT22;2583;50.946;6.954;2023-05-10T10:30:40;16.70;99.90
5130;DHT22;2583;50.946;6.954;2023-05-10T10:36:26;16.80;99.90
5130;DHT22;2583;50.946;6.954;2023-05-10T10:41:30;17.30;99.90
5130;DHT22;2583;50.946;6.954;2023-05-10T10:47:21;17.90;99.90
5130;DHT22;2583;50.946;6.954;2023-05-10T10:49:52;18.00;99.90
5130;DHT22;2583;50.946;6.954;2023-05-10T10:52:34;17.90;99.90
5130;DHT22;2583;50.946;6.954;2023-05-10T10:55:16;17.80;99.90
5130;DHT22;2583;50.946;6.954;2023-05-10T10:57:45;17.90;99.90
5130;DHT22;2583;50.946;6.954;2023-05-10T11:03:11;18.40;99.90
5130;DHT22;2583;50.946;6.954;2023-05-10T11:05:48;18.40;99.90
5130;DHT22;2583;50.946;6.954;2023-05-10T11:08:27;18.40;99.90
5130;DHT22;2583;50.946;6.954;2023-05-10T11:13:44;18.30;99.90
5130;DHT22;2583;50.946;6.954;2023-05-10T11:16:20;18.30;99.90
5130;DHT22;2583;50.946;6.954;2023-05-10T11:19:06;18.30;99.90
5130;DHT22;2583;50.946;6.954;2023-05-10T11:21:34;18.60;99.90
5130;DHT22;2583;50.946;6.954;2023-05-10T11:24:15;18.60;99.90
5130;DHT22;2583;50.946;6.954;2023-05-10T11:26:42;18.30;99.40
5130;DHT22;2583;50.946;6.954;2023-05-10T11:29:09;18.10;99.90
5130;DHT22;2583;50.946;6.954;2023-05-10T11:31:45;18.10;99.90
5130;DHT22;2583;50.946;6.954;2023-05-10T11:34:28;18.10;99.90
5130;DHT22;2583;50.946;6.954;2023-05-10T11:36:57;18.20;99.90
5130;DHT22;2583;50.946;6.954;2023-05-10T11:39:29;17.90;99.90
5130;DHT22;2583;50.946;6.954;2023-05-10T11:41:57;17.80;99.90
5130;DHT22;2583;50.946;6.954;2023-05-10T11:44:29;17.80;99.90
5130;DHT22;2583;50.946;6.954;2023-05-10T11:46:59;17.70;99.90
5130;DHT22;2583;50.946;6.954;2023-05-10T11:49:26;17.40;99.90
5130;DHT22;2583;50.946;6.954;2023-05-10T11:52:04;17.30;99.90
5130;DHT22;2583;50.946;6.954;2023-05-10T11:54:30;17.40;99.90
5130;DHT22;2583;50.946;6.954;2023-05-10T11:56:57;17.30;99.90
5130;DHT22;2583;50.946;6.954;2023-05-10T11:59:25;17.40;99.90
5130;DHT22;2583;50.946;6.954;2023-05-10T12:01:52;17.50;98.00
5130;DHT22;2583;50.946;6.954;2023-05-10T12:04:19;17.60;98.10
5130;DHT22;2583;50.946;6.954;2023-05-10T12:06:46;17.70;97.20
5130;DHT22;2583;50.946;6.954;2023-05-10T12:09:14;17.70;97.50
5130;DHT22;2583;50.946;6.954;2023-05-10T12:11:41;17.70;97.70
5130;DHT22;2583;50.946;6.954;2023-05-10T12:14:10;17.80;94.50
5130;DHT22;2583;50.946;6.954;2023-05-10T12:16:37;17.80;93.60
5130;DHT22;2583;50.946;6.954;2023-05-10T12:19:04;17.80;92.70
5130;DHT22;2583;50.946;6.954;2023-05-10T12:21:32;17.70;93.50
5130;DHT22;2583;50.946;6.954;2023-05-10T12:24:02;17.70;96.50
5130;DHT22;2583;50.946;6.954;2023-05-10T12:26:30;18.00;95.60
5130;DHT22;2583;50.946;6.954;2023-05-10T12:29:16;18.10;93.10
5130;DHT22;2583;50.946;6.954;2023-05-10T12:31:58;18.20;93.50
5130;DHT22;2583;50.946;6.954;2023-05-10T12:34:26;18.40;92.90
5130;DHT22;2583;50.946;6.954;2023-05-10T12:36:54;18.40;92.80
5130;DHT22;2583;50.946;6.954;2023-05-10T12:39:21;18.70;87.30
5130;DHT22;2583;50.946;6.954;2023-05-10T12:41:48;18.70;85.60
5130;DHT22;2583;50.946;6.954;2023-05-10T12:44:14;18.80;79.70
5130;DHT22;2583;50.946;6.954;2023-05-10T12:46:41;19.00;77.50
5130;DHT22;2583;50.946;6.954;2023-05-10T12:49:08;19.00;77.20
5130;DHT22;2583;50.946;6.954;2023-05-10T12:51:35;18.80;78.00
5130;DHT22;2583;50.946;6.954;2023-05-10T12:54:02;19.00;79.90
5130;DHT22;2583;50.946;6.954;2023-05-10T12:56:29;19.30;73.60
5130;DHT22;2583;50.946;6.954;2023-05-10T12:58:56;19.50;63.30
5130;DHT22;2583;50.946;6.954;2023-05-10T13:01:23;19.60;62.60
5130;DHT22;2583;50.946;6.954;2023-05-10T13:03:50;19.80;59.30
5130;DHT22;2583;50.946;6.954;2023-05-10T13:06:17;20.10;57.30
5130;DHT22;2583;50.946;6.954;2023-05-10T13:08:43;19.80;54.70
5130;DHT22;2583;50.946;6.954;2023-05-10T13:11:10;20.00;54.30
5130;DHT22;2583;50.946;6.954;2023-05-10T13:13:37;20.10;52.50
5130;DHT22;2583;50.946;6.954;2023-05-10T13:16:04;20.20;52.10
5130;DHT22;2583;50.946;6.954;2023-05-10T13:18:31;20.00;54.10
5130;DHT22;2583;50.946;6.954;2023-05-10T13:20:57;20.00;54.60
5130;DHT22;2583;50.946;6.954;2023-05-10T13:23:24;20.30;52.60
5130;DHT22;2583;50.946;6.954;2023-05-10T13:25:51;21.00;50.40
5130;DHT22;2583;50.946;6.954;2023-05-10T13:28:18;21.20;46.10
5130;DHT22;2583;50.946;6.954;2023-05-10T13:30:45;21.90;44.10
5130;DHT22;2583;50.946;6.954;2023-05-10T13:33:12;21.20;43.80
5130;DHT22;2583;50.946;6.954;2023-05-10T13:35:39;20.80;48.00
5130;DHT22;2583;50.946;6.954;2023-05-10T13:38:05;20.80;49.20
5130;DHT22;2583;50.946;6.954;2023-05-10T13:40:34;20.80;49.10
5130;DHT22;2583;50.946;6.954;2023-05-10T13:43:02;20.40;49.80
5130;DHT22;2583;50.946;6.954;2023-05-10T13:45:29;20.50;50.70
5130;DHT22;2583;50.946;6.954;2023-05-10T13:47:56;20.60;50.00
5130;DHT22;2583;50.946;6.954;2023-05-10T13:50:22;20.40;51.00
5130;DHT22;2583;50.946;6.954;2023-05-10T13:52:52;20.70;50.00
5130;DHT22;2583;50.946;6.954;2023-05-10T13:55:18;20.90;49.80
5130;DHT22;2583;50.946;6.954;2023-05-10T13:57:45;20.90;49.50
5130;DHT22;2583;50.946;6.954;2023-05-10T14:00:13;20.80;47.00
5130;DHT22;2583;50.946;6.954;2023-05-10T14:02:39;20.50;49.10
5130;DHT22;2583;50.946;6.954;2023-05-10T14:05:07;20.00;50.00
5130;DHT22;2583;50.946;6.954;2023-05-10T14:07:34;20.50;49.90
5130;DHT22;2583;50.946;6.954;2023-05-10T14:10:01;20.70;49.60
5130;DHT22;2583;50.946;6.954;2023-05-10T14:12:28;20.80;49.60
5130;DHT22;2583;50.946;6.954;2023-05-10T14:14:55;20.60;49.10
5130;DHT22;2583;50.946;6.954;2023-05-10T14:17:21;20.40;48.90
5130;DHT22;2583;50.946;6.954;2023-05-10T14:19:49;20.40;50.60
5130;DHT22;2583;50.946;6.954;2023-05-10T14:22:15;20.20;51.90
5130;DHT22;2583;50.946;6.954;2023-05-10T14:24:42;20.10;53.80
5130;DHT22;2583;50.946;6.954;2023-05-10T14:27:13;19.50;54.30
5130;DHT22;2583;50.946;6.954;2023-05-10T14:29:39;19.80;56.90
5130;DHT22;2583;50.946;6.954;2023-05-10T14:32:06;20.20;54.20
5130;DHT22;2583;50.946;6.954;2023-05-10T14:34:33;20.30;51.90
5130;DHT22;2583;50.946;6.954;2023-05-10T14:37:00;20.30;49.90
5130;DHT22;2583;50.946;6.954;2023-05-10T14:39:27;20.20;47.20
5130;DHT22;2583;50.946;6.954;2023-05-10T14:41:56;19.80;49.30
5130;DHT22;2583;50.946;6.954;2023-05-10T14:44:23;19.70;52.80
5130;DHT22;2583;50.946;6.954;2023-05-10T14:46:50;19.70;51.50
5130;DHT22;2583;50.946;6.954;2023-05-10T14:49:17;19.80;51.10
5130;DHT22;2583;50.946;6.954;2023-05-10T14:51:44;19.70;50.20
5130;DHT22;2583;50.946;6.954;2023-05-10T14:54:12;19.60;52.40
5130;DHT22;2583;50.946;6.954;2023-05-10T14:56:38;19.50;54.30
5130;DHT22;2583;50.946;6.954;2023-05-10T14:59:05;19.30;55.50
5130;DHT22;2583;50.946;6.954;2023-05-10T15:01:32;19.20;58.30
5130;DHT22;2583;50.946;6.954;2023-05-10T15:04:01;19.00;57.50
5130;DHT22;2583;50.946;6.954;2023-05-10T15:06:33;19.00;61.20
5130;DHT22;2583;50.946;6.954;2023-05-10T15:09:01;19.10;63.60
5130;DHT22;2583;50.946;6.954;2023-05-10T15:11:29;19.00;65.90
5130;DHT22;2583;50.946;6.954;2023-05-10T15:13:56;18.80;67.50
5130;DHT22;2583;50.946;6.954;2023-05-10T15:16:23;18.70;70.50
5130;DHT22;2583;50.946;6.954;2023-05-10T15:18:50;18.60;73.30
5130;DHT22;2583;50.946;6.954;2023-05-10T15:21:17;18.50;78.00
5130;DHT22;2583;50.946;6.954;2023-05-10T15:23:44;18.40;82.10
5130;DHT22;2583;50.946;6.954;2023-05-10T15:26:11;18.20;83.00
5130;DHT22;2583;50.946;6.954;2023-05-10T15:28:38;18.10;83.20
5130;DHT22;2583;50.946;6.954;2023-05-10T15:31:05;18.10;85.40
5130;DHT22;2583;50.946;6.954;2023-05-10T15:33:32;18.20;77.30
5130;DHT22;2583;50.946;6.954;2023-05-10T15:35:58;18.30;80.30
5130;DHT22;2583;50.946;6.954;2023-05-10T15:38:25;18.50;80.30
5130;DHT22;2583;50.946;6.954;2023-05-10T15:40:56;18.70;79.00
5130;DHT22;2583;50.946;6.954;2023-05-10T15:43:24;19.00;73.40
5130;DHT22;2583;50.946;6.954;2023-05-10T15:45:51;19.10;72.10
5130;DHT22;2583;50.946;6.954;2023-05-10T15:48:18;19.20;68.70
5130;DHT22;2583;50.946;6.954;2023-05-10T15:50:45;19.40;70.00
5130;DHT22;2583;50.946;6.954;2023-05-10T15:53:12;19.60;69.30
5130;DHT22;2583;50.946;6.954;2023-05-10T15:55:39;19.80;64.20
5130;DHT22;2583;50.946;6.954;2023-05-10T15:58:06;19.90;64.50
5130;DHT22;2583;50.946;6.954;2023-05-10T16:00:33;19.80;62.50
5130;DHT22;2583;50.946;6.954;2023-05-10T16:03:00;19.60;60.50
5130;DHT22;2583;50.946;6.954;2023-05-10T16:05:27;19.40;59.40
5130;DHT22;2583;50.946;6.954;2023-05-10T16:07:58;19.30;60.20
5130;DHT22;2583;50.946;6.954;2023-05-10T16:10:26;18.90;64.20
5130;DHT22;2583;50.946;6.954;2023-05-10T16:12:53;19.00;67.70
5130;DHT22;2583;50.946;6.954;2023-05-10T16:15:20;19.10;67.90
5130;DHT22;2583;50.946;6.954;2023-05-10T16:17:48;18.90;67.80
5130;DHT22;2583;50.946;6.954;2023-05-10T16:20:15;19.10;69.80
5130;DHT22;2583;50.946;6.954;2023-05-10T16:22:42;19.10;70.40
5130;DHT22;2583;50.946;6.954;2023-05-10T16:25:10;19.00;71.60
5130;DHT22;2583;50.946;6.954;2023-05-10T16:27:39;19.00;73.50
5130;DHT22;2583;50.946;6.954;2023-05-10T16:30:06;18.90;75.50
5130;DHT22;2583;50.946;6.954;2023-05-10T16:32:33;19.00;75.30
5130;DHT22;2583;50.946;6.954;2023-05-10T16:35:00;18.80;76.90
5130;DHT22;2583;50.946;6.954;2023-05-10T16:37:27;18.90;77.20
5130;DHT22;2583;50.946;6.954;2023-05-10T16:39:54;19.00;74.70
5130;DHT22;2583;50.946;6.954;2023-05-10T16:42:21;18.90;73.70